Time;durP1;ratioP1;P1;durP2;ratioP2;P2;SDS_P1;SDS_P2;PMS_P1;PMS_P2;Temp;Humidity;BMP_temperature;BMP_pressure;BME280_temperature;BME280_humidity;BME280_pressure;Samples;Min_cycle;Max_cycle;Signal;HPM_P1;HPM_P2
2021/04/16 00:00:44;;;;;;;2.55;1.00;;;;;;;;;;5034221;28;20060;-73
2021/04/16 00:03:11;;;;;;;2.30;0.90;;;;;;;;;;5021166;28;20534;-73
2021/04/16 00:05:38;;;;;;;1.88;0.80;;;;;;;;;;5028471;28;20029;-73
2021/04/16 00:08:12;;;;;;;2.42;0.90;;;;;;;;;;5030016;28;20108;-73
2021/04/16 00:10:43;;;;;;;1.60;0.82;;;;;;;;;;5010956;28;20026;-73
2021/04/16 00:13:10;;;;;;;1.77;1.10;;;;;;;;;;5042362;28;20040;-73
2021/04/16 00:15:37;;;;;;;1.80;0.80;;;;;;;;;;5035606;28;20049;-73
2021/04/16 00:18:05;;;;;;;3.25;1.02;;;;;;;;;;5032386;28;20087;-73
2021/04/16 00:20:31;;;;;;;1.98;0.82;;;;;;;;;;5034258;28;20064;-73
2021/04/16 00:22:57;;;;;;;3.28;1.42;;;;;;;;;;5034273;28;20033;-73
2021/04/16 00:25:24;;;;;;;1.45;0.80;;;;;;;;;;5028029;28;20026;-73
2021/04/16 00:27:50;;;;;;;2.30;0.80;;;;;;;;;;5025484;28;20026;-73
2021/04/16 00:30:20;;;;;;;1.67;0.90;;;;;;;;;;5037982;28;20111;-73
2021/04/16 00:32:46;;;;;;;1.70;0.93;;;;;;;;;;5036541;28;20028;-73
2021/04/16 00:35:12;;;;;;;2.20;0.98;;;;;;;;;;5038164;28;20271;-73
2021/04/16 00:37:38;;;;;;;4.60;1.10;;;;;;;;;;5029852;28;20483;-73
2021/04/16 00:40:05;;;;;;;1.60;0.88;;;;;;;;;;5033644;28;20029;-73
2021/04/16 00:42:31;;;;;;;4.25;1.00;;;;;;;;;;5022064;28;20037;-73
2021/04/16 00:44:57;;;;;;;4.50;1.08;;;;;;;;;;5038736;28;20029;-73
2021/04/16 00:47:23;;;;;;;4.03;1.23;;;;;;;;;;5027797;28;20021;-73
2021/04/16 00:49:52;;;;;;;2.70;1.20;;;;;;;;;;5030629;28;20029;-73
2021/04/16 00:52:27;;;;;;;2.65;0.90;;;;;;;;;;5031117;28;20025;-73
2021/04/16 00:54:53;;;;;;;2.03;0.90;;;;;;;;;;5021051;28;20087;-74
2021/04/16 00:57:19;;;;;;;2.35;1.08;;;;;;;;;;5039369;28;20032;-73
2021/04/16 00:59:52;;;;;;;1.70;0.85;;;;;;;;;;5024452;28;20045;-73
2021/04/16 01:02:18;;;;;;;2.00;1.00;;;;;;;;;;5039195;28;20060;-73
2021/04/16 01:04:44;;;;;;;3.50;1.45;;;;;;;;;;5035354;28;20057;-73
2021/04/16 01:07:10;;;;;;;2.50;1.20;;;;;;;;;;5041970;28;20039;-73
2021/04/16 01:09:36;;;;;;;3.10;1.20;;;;;;;;;;5022643;28;20484;-73
2021/04/16 01:12:05;;;;;;;3.20;1.33;;;;;;;;;;5033223;28;20033;-73
2021/04/16 01:14:31;;;;;;;4.30;1.40;;;;;;;;;;5038277;28;20537;-73
2021/04/16 01:16:57;;;;;;;3.25;1.80;;;;;;;;;;5024733;28;20029;-73
2021/04/16 01:19:29;;;;;;;3.03;1.35;;;;;;;;;;5023740;28;20056;-73
2021/04/16 01:21:57;;;;;;;4.97;2.30;;;;;;;;;;5030265;28;20053;-73
2021/04/16 01:24:23;;;;;;;3.90;2.38;;;;;;;;;;5007512;28;20026;-73
2021/04/16 01:26:50;;;;;;;8.05;2.55;;;;;;;;;;5024153;28;20088;-73
2021/04/16 01:29:16;;;;;;;3.50;2.15;;;;;;;;;;5036121;28;20037;-73
2021/04/16 01:31:48;;;;;;;3.97;3.00;;;;;;;;;;5043068;28;20092;-73
2021/04/16 01:34:22;;;;;;;6.57;3.28;;;;;;;;;;5029840;28;20033;-73
2021/04/16 01:36:50;;;;;;;7.97;3.03;;;;;;;;;;5032565;28;20032;-73
2021/04/16 01:39:16;;;;;;;6.05;3.55;;;;;;;;;;5037542;28;20044;-73
2021/04/16 01:41:42;;;;;;;5.40;3.30;;;;;;;;;;5023537;28;20106;-73
2021/04/16 01:44:11;;;;;;;7.35;3.45;;;;;;;;;;5040483;28;20536;-73
2021/04/16 01:47:06;;;;;;;9.98;3.05;;;;;;;;;;5023688;28;20082;-73
2021/04/16 01:49:34;;;;;;;6.80;3.95;;;;;;;;;;5024868;28;20033;-73
2021/04/16 01:52:00;;;;;;;8.23;3.83;;;;;;;;;;5040594;28;20032;-73
2021/04/16 01:54:32;;;;;;;7.55;3.63;;;;;;;;;;5027619;28;20486;-73
2021/04/16 01:57:04;;;;;;;6.40;4.13;;;;;;;;;;5032937;28;20038;-73
2021/04/16 01:59:34;;;;;;;6.75;4.18;;;;;;;;;;5029957;28;20124;-73
2021/04/16 02:02:00;;;;;;;9.30;3.90;;;;;;;;;;5035592;28;20029;-73
2021/04/16 02:04:26;;;;;;;7.18;3.80;;;;;;;;;;5033654;28;20035;-73
2021/04/16 02:06:53;;;;;;;11.88;4.20;;;;;;;;;;5027019;28;20030;-73
2021/04/16 02:09:20;;;;;;;8.07;3.42;;;;;;;;;;5028210;28;20116;-73
2021/04/16 02:11:47;;;;;;;9.52;4.20;;;;;;;;;;5034992;28;20071;-73
2021/04/16 02:14:14;;;;;;;5.90;3.13;;;;;;;;;;5029279;28;20033;-73
2021/04/16 02:16:40;;;;;;;5.68;3.47;;;;;;;;;;5036445;28;20029;-74
2021/04/16 02:19:06;;;;;;;5.75;3.20;;;;;;;;;;5030229;28;20049;-73
2021/04/16 02:21:33;;;;;;;5.22;3.33;;;;;;;;;;5023497;28;20026;-73
2021/04/16 02:23:59;;;;;;;10.02;3.75;;;;;;;;;;5028357;28;20030;-73
2021/04/16 02:26:25;;;;;;;9.23;4.03;;;;;;;;;;5028712;28;20458;-73
2021/04/16 02:28:51;;;;;;;4.43;3.00;;;;;;;;;;5021015;28;20053;-75
2021/04/16 02:31:17;;;;;;;7.10;3.60;;;;;;;;;;5045532;28;20118;-73
2021/04/16 02:33:44;;;;;;;6.47;3.70;;;;;;;;;;5026963;28;20029;-73
2021/04/16 02:36:10;;;;;;;5.28;3.08;;;;;;;;;;5046988;28;20029;-73
2021/04/16 02:38:36;;;;;;;7.88;3.15;;;;;;;;;;5031350;28;20026;-73
2021/04/16 02:41:03;;;;;;;9.93;5.00;;;;;;;;;;5021555;28;20036;-73
2021/04/16 02:43:29;;;;;;;6.90;3.95;;;;;;;;;;5035747;28;20033;-73
2021/04/16 02:45:55;;;;;;;5.10;2.80;;;;;;;;;;5030422;28;20029;-73
2021/04/16 02:48:21;;;;;;;8.25;4.22;;;;;;;;;;5036224;28;20041;-73
2021/04/16 02:50:47;;;;;;;7.90;3.25;;;;;;;;;;5026539;28;20100;-73
2021/04/16 02:53:13;;;;;;;7.57;3.30;;;;;;;;;;5031194;28;20468;-73
2021/04/16 02:55:39;;;;;;;9.20;3.20;;;;;;;;;;5037495;28;20036;-73
2021/04/16 02:58:05;;;;;;;8.15;3.40;;;;;;;;;;5034760;28;20026;-73
2021/04/16 03:00:32;;;;;;;9.00;3.38;;;;;;;;;;5040628;28;20433;-72
2021/04/16 03:02:58;;;;;;;7.68;3.60;;;;;;;;;;5028831;28;20040;-73
2021/04/16 03:05:24;;;;;;;5.15;3.35;;;;;;;;;;5025793;28;20040;-73
2021/04/16 03:07:52;;;;;;;8.13;3.63;;;;;;;;;;5026696;28;20787;-73
2021/04/16 03:10:20;;;;;;;10.00;3.30;;;;;;;;;;5037858;28;20391;-73
2021/04/16 03:12:46;;;;;;;6.20;3.33;;;;;;;;;;5025152;28;20026;-73
2021/04/16 03:15:12;;;;;;;8.50;3.25;;;;;;;;;;5037385;28;20034;-73
2021/04/16 03:17:38;;;;;;;7.85;3.90;;;;;;;;;;5029911;28;20025;-73
2021/04/16 03:20:06;;;;;;;6.72;3.33;;;;;;;;;;5024526;28;20464;-73
2021/04/16 03:22:32;;;;;;;7.50;3.83;;;;;;;;;;5027570;28;20032;-73
2021/04/16 03:24:58;;;;;;;8.20;3.65;;;;;;;;;;5025241;28;20025;-73
2021/04/16 03:27:24;;;;;;;9.95;5.82;;;;;;;;;;5028875;28;20021;-72
2021/04/16 03:29:50;;;;;;;7.70;3.60;;;;;;;;;;5030584;28;20402;-74
2021/04/16 03:32:16;;;;;;;6.32;3.50;;;;;;;;;;5029404;28;20410;-73
2021/04/16 03:34:42;;;;;;;8.18;3.88;;;;;;;;;;5024907;28;20029;-73
2021/04/16 03:37:07;;;;;;;5.65;3.10;;;;;;;;;;5035684;28;20433;-74
2021/04/16 03:39:34;;;;;;;7.70;3.20;;;;;;;;;;5029736;28;21373;-73
2021/04/16 03:41:59;;;;;;;7.78;3.63;;;;;;;;;;5025879;28;20360;-73
2021/04/16 03:44:25;;;;;;;5.38;3.08;;;;;;;;;;5030138;28;20037;-73
2021/04/16 03:46:51;;;;;;;5.65;3.33;;;;;;;;;;5017942;28;20026;-73
2021/04/16 03:49:17;;;;;;;6.15;3.15;;;;;;;;;;5038827;28;20040;-73
2021/04/16 03:51:51;;;;;;;5.78;3.03;;;;;;;;;;5027626;28;20029;-74
2021/04/16 03:54:17;;;;;;;10.15;3.85;;;;;;;;;;5029290;28;20071;-73
2021/04/16 03:56:43;;;;;;;6.10;3.22;;;;;;;;;;5037005;28;20032;-73
2021/04/16 03:59:09;;;;;;;5.38;3.28;;;;;;;;;;5034197;28;20057;-73
2021/04/16 04:01:35;;;;;;;9.20;3.95;;;;;;;;;;5021124;28;20040;-74
2021/04/16 04:04:01;;;;;;;5.95;3.50;;;;;;;;;;5024407;28;20034;-74
2021/04/16 04:06:27;;;;;;;5.72;2.92;;;;;;;;;;5020922;28;20025;-73
2021/04/16 04:08:53;;;;;;;5.28;2.75;;;;;;;;;;5028801;28;20727;-73
2021/04/16 04:11:19;;;;;;;6.50;3.30;;;;;;;;;;5022525;28;20026;-73
2021/04/16 04:13:45;;;;;;;6.93;3.83;;;;;;;;;;5034449;28;20478;-74
2021/04/16 04:16:11;;;;;;;6.30;3.22;;;;;;;;;;5022154;28;20041;-73
2021/04/16 04:18:37;;;;;;;5.82;2.95;;;;;;;;;;5026620;28;20087;-74
2021/04/16 04:21:04;;;;;;;5.30;2.85;;;;;;;;;;5042866;28;20033;-74
2021/04/16 04:23:30;;;;;;;10.57;3.83;;;;;;;;;;5025153;28;20088;-74
2021/04/16 04:25:56;;;;;;;7.63;3.92;;;;;;;;;;5031017;28;20048;-73
2021/04/16 04:28:22;;;;;;;6.13;3.33;;;;;;;;;;5034330;28;20112;-74
2021/04/16 04:30:48;;;;;;;5.03;3.42;;;;;;;;;;5035926;28;20408;-73
2021/04/16 04:33:14;;;;;;;6.47;2.90;;;;;;;;;;5038553;28;20480;-74
2021/04/16 04:35:40;;;;;;;5.70;3.10;;;;;;;;;;5018401;28;20549;-73
2021/04/16 04:38:07;;;;;;;8.10;4.03;;;;;;;;;;5031899;28;20376;-74
2021/04/16 04:40:33;;;;;;;6.55;3.65;;;;;;;;;;5023575;28;20033;-74
2021/04/16 04:42:59;;;;;;;7.22;3.92;;;;;;;;;;5043016;28;20032;-74
2021/04/16 04:45:25;;;;;;;5.40;3.35;;;;;;;;;;5027364;28;20084;-74
2021/04/16 04:47:52;;;;;;;7.57;3.60;;;;;;;;;;5030369;28;20032;-74
2021/04/16 04:50:19;;;;;;;6.82;3.58;;;;;;;;;;5029899;28;20033;-74
2021/04/16 04:52:45;;;;;;;8.48;3.88;;;;;;;;;;5022326;28;20472;-74
2021/04/16 04:55:13;;;;;;;11.88;4.55;;;;;;;;;;5027401;28;20421;-74
2021/04/16 04:57:40;;;;;;;6.75;3.63;;;;;;;;;;5024783;28;20487;-74
2021/04/16 05:00:06;;;;;;;6.30;4.28;;;;;;;;;;5024335;28;20124;-74
2021/04/16 05:02:32;;;;;;;6.60;3.22;;;;;;;;;;5025671;28;20029;-73
2021/04/16 05:04:58;;;;;;;9.25;3.72;;;;;;;;;;5017594;28;20034;-73
2021/04/16 05:07:25;;;;;;;8.55;3.97;;;;;;;;;;5035644;28;20463;-73
2021/04/16 05:09:51;;;;;;;8.55;4.03;;;;;;;;;;5017930;28;20447;-73
2021/04/16 05:12:17;;;;;;;8.15;3.05;;;;;;;;;;5042762;28;20029;-74
2021/04/16 05:14:43;;;;;;;5.00;3.15;;;;;;;;;;5024927;28;20056;-73
2021/04/16 05:17:09;;;;;;;8.38;4.28;;;;;;;;;;5034359;28;20115;-74
2021/04/16 05:19:35;;;;;;;5.07;3.20;;;;;;;;;;5024545;28;20036;-74
2021/04/16 05:22:03;;;;;;;10.20;3.38;;;;;;;;;;5027179;28;20539;-74
2021/04/16 05:24:31;;;;;;;5.78;3.55;;;;;;;;;;5021054;28;20030;-74
2021/04/16 05:26:58;;;;;;;7.00;3.53;;;;;;;;;;5024467;28;20473;-74
2021/04/16 05:29:24;;;;;;;6.47;3.15;;;;;;;;;;5020447;28;20120;-74
2021/04/16 05:31:50;;;;;;;8.82;3.20;;;;;;;;;;5023760;28;20100;-74
2021/04/16 05:34:16;;;;;;;6.07;2.85;;;;;;;;;;5021083;28;20034;-74
2021/04/16 05:36:42;;;;;;;6.13;3.05;;;;;;;;;;5026000;28;20032;-74
2021/04/16 05:39:08;;;;;;;5.57;3.42;;;;;;;;;;5023440;28;20034;-74
2021/04/16 05:41:34;;;;;;;6.55;2.60;;;;;;;;;;5020842;28;20029;-75
2021/04/16 05:44:00;;;;;;;6.25;2.97;;;;;;;;;;5032900;28;20088;-74
2021/04/16 05:46:26;;;;;;;10.35;3.50;;;;;;;;;;5021085;28;20049;-74
2021/04/16 05:48:52;;;;;;;6.07;2.97;;;;;;;;;;5026764;28;20022;-74
2021/04/16 05:51:18;;;;;;;7.05;3.47;;;;;;;;;;5036120;28;20022;-74
2021/04/16 05:53:44;;;;;;;9.40;3.92;;;;;;;;;;5032735;28;20066;-74
2021/04/16 05:56:10;;;;;;;9.38;3.42;;;;;;;;;;5023899;28;20422;-74
2021/04/16 05:58:36;;;;;;;8.27;3.08;;;;;;;;;;5026088;28;20025;-74
2021/04/16 06:01:02;;;;;;;7.95;3.20;;;;;;;;;;5025020;28;20471;-74
2021/04/16 06:03:28;;;;;;;7.97;3.05;;;;;;;;;;5020473;28;20064;-74
2021/04/16 06:05:56;;;;;;;9.75;3.42;;;;;;;;;;5025931;28;20037;-74
2021/04/16 06:08:22;;;;;;;6.47;3.20;;;;;;;;;;5018173;28;20029;-74
2021/04/16 06:10:48;;;;;;;8.02;3.00;;;;;;;;;;5027862;28;20025;-71
2021/04/16 06:13:15;;;;;;;6.95;3.42;;;;;;;;;;5031856;28;20495;-72
2021/04/16 06:15:41;;;;;;;7.03;2.92;;;;;;;;;;5013302;28;20113;-71
2021/04/16 06:18:07;;;;;;;5.90;2.78;;;;;;;;;;5022647;28;20148;-72
2021/04/16 06:20:33;;;;;;;5.60;3.10;;;;;;;;;;5024861;28;20022;-72
2021/04/16 06:22:59;;;;;;;7.95;3.28;;;;;;;;;;5012009;28;20029;-72
2021/04/16 06:25:27;;;;;;;5.20;2.90;;;;;;;;;;5011597;28;20088;-72
2021/04/16 06:27:53;;;;;;;9.80;3.55;;;;;;;;;;5009628;28;20014;-72
2021/04/16 06:30:19;;;;;;;7.68;3.90;;;;;;;;;;5017272;28;20021;-68
2021/04/16 06:32:46;;;;;;;6.90;3.22;;;;;;;;;;5014585;28;20108;-73
2021/04/16 06:35:14;;;;;;;8.00;3.17;;;;;;;;;;5020751;28;20030;-74
2021/04/16 06:37:40;;;;;;;9.27;2.70;;;;;;;;;;5029923;28;20115;-73
2021/04/16 06:40:06;;;;;;;11.10;2.90;;;;;;;;;;5019985;28;20026;-73
2021/04/16 06:42:33;;;;;;;8.38;2.75;;;;;;;;;;5017830;28;20064;-74
2021/04/16 06:45:00;;;;;;;4.80;2.42;;;;;;;;;;5015289;28;20034;-74
2021/04/16 06:47:30;;;;;;;11.35;3.42;;;;;;;;;;5017938;28;20018;-74
2021/04/16 06:49:57;;;;;;;7.30;2.63;;;;;;;;;;5023869;28;20022;-74
2021/04/16 06:52:27;;;;;;;7.50;2.83;;;;;;;;;;5026068;28;20379;-74
2021/04/16 06:54:57;;;;;;;8.57;2.72;;;;;;;;;;5018174;28;20057;-73
2021/04/16 06:57:35;;;;;;;6.60;2.92;;;;;;;;;;5015835;28;20429;-74
2021/04/16 07:00:10;;;;;;;7.85;2.92;;;;;;;;;;5014687;28;20034;-74
2021/04/16 07:02:40;;;;;;;7.75;2.63;;;;;;;;;;5018039;28;20057;-73
2021/04/16 07:05:12;;;;;;;5.90;2.15;;;;;;;;;;5018207;28;20025;-74
2021/04/16 07:07:41;;;;;;;6.57;2.83;;;;;;;;;;5016003;28;20486;-74
2021/04/16 07:10:15;;;;;;;9.77;2.87;;;;;;;;;;5014558;28;20438;-74
2021/04/16 07:12:41;;;;;;;7.88;3.00;;;;;;;;;;5018755;28;20025;-74
2021/04/16 07:15:09;;;;;;;4.38;2.20;;;;;;;;;;5017675;28;20696;-74
2021/04/16 07:17:40;;;;;;;6.93;3.00;;;;;;;;;;5010853;28;20450;-73
2021/04/16 07:20:07;;;;;;;9.18;3.55;;;;;;;;;;5026382;28;20028;-74
2021/04/16 07:22:44;;;;;;;8.73;2.65;;;;;;;;;;5011469;28;20026;-74
2021/04/16 07:25:28;;;;;;;6.53;2.38;;;;;;;;;;5023241;28;20025;-74
2021/04/16 07:27:56;;;;;;;8.85;2.20;;;;;;;;;;5030741;28;20031;-74
2021/04/16 07:30:30;;;;;;;6.53;2.78;;;;;;;;;;5025223;28;20041;-74
2021/04/16 07:32:56;;;;;;;4.30;2.20;;;;;;;;;;5034446;28;20064;-74
2021/04/16 07:35:32;;;;;;;8.73;3.00;;;;;;;;;;5022894;28;20075;-74
2021/04/16 07:38:14;;;;;;;6.28;1.98;;;;;;;;;;5028018;28;20468;-73
2021/04/16 07:40:45;;;;;;;4.90;2.40;;;;;;;;;;5020307;28;20021;-75
2021/04/16 07:43:29;;;;;;;8.57;2.35;;;;;;;;;;5025287;28;20036;-73
2021/04/16 07:45:55;;;;;;;5.70;1.95;;;;;;;;;;5012161;28;20126;-72
2021/04/16 07:48:21;;;;;;;17.23;2.70;;;;;;;;;;5028703;28;20148;-72
2021/04/16 07:50:52;;;;;;;6.68;2.83;;;;;;;;;;5025232;28;20026;-72
2021/04/16 07:53:27;;;;;;;7.82;3.08;;;;;;;;;;5025300;28;20033;-72
2021/04/16 07:56:11;;;;;;;6.53;2.65;;;;;;;;;;5014964;28;20108;-75
2021/04/16 07:58:38;;;;;;;6.05;2.90;;;;;;;;;;5020834;28;20060;-74
2021/04/16 08:01:17;;;;;;;8.27;3.17;;;;;;;;;;5031533;28;20111;-74
2021/04/16 08:03:47;;;;;;;8.90;3.25;;;;;;;;;;5028634;28;20024;-74
2021/04/16 08:06:24;;;;;;;10.40;3.63;;;;;;;;;;5023059;28;20032;-74
2021/04/16 08:08:50;;;;;;;11.07;3.30;;;;;;;;;;5020227;28;20100;-73
2021/04/16 08:11:19;;;;;;;7.55;4.05;;;;;;;;;;5029089;28;20045;-74
2021/04/16 08:13:45;;;;;;;10.98;4.43;;;;;;;;;;5022569;28;20026;-71
2021/04/16 08:16:14;;;;;;;10.23;4.88;;;;;;;;;;5022675;28;20479;-72
2021/04/16 08:18:41;;;;;;;10.68;4.72;;;;;;;;;;5021964;28;20061;-72
2021/04/16 08:21:07;;;;;;;12.73;5.65;;;;;;;;;;5022130;28;20108;-75
2021/04/16 08:23:36;;;;;;;11.07;5.60;;;;;;;;;;5008432;28;20069;-75
2021/04/16 08:26:03;;;;;;;12.93;5.07;;;;;;;;;;5014800;28;20084;-75
2021/04/16 08:28:34;;;;;;;9.02;5.70;;;;;;;;;;5010961;28;20022;-75
2021/04/16 08:31:06;;;;;;;10.40;6.10;;;;;;;;;;5019851;28;20021;-75
2021/04/16 08:33:35;;;;;;;11.52;6.35;;;;;;;;;;5018486;28;20096;-76
2021/04/16 08:36:07;;;;;;;12.27;6.97;;;;;;;;;;5021480;28;20445;-77
2021/04/16 08:38:50;;;;;;;11.02;4.88;;;;;;;;;;5012041;28;20030;-76
2021/04/16 08:41:16;;;;;;;9.55;4.25;;;;;;;;;;5016903;28;20391;-76
2021/04/16 08:43:42;;;;;;;9.52;4.72;;;;;;;;;;5011212;28;20025;-76
2021/04/16 08:46:19;;;;;;;11.38;5.07;;;;;;;;;;5015602;28;20058;-77
2021/04/16 08:48:52;;;;;;;11.32;4.50;;;;;;;;;;5016074;28;20029;-76
2021/04/16 08:51:18;;;;;;;7.85;4.80;;;;;;;;;;5009943;28;20044;-77
2021/04/16 08:53:44;;;;;;;9.02;4.10;;;;;;;;;;5015274;28;20036;-76
2021/04/16 08:56:23;;;;;;;6.68;3.67;;;;;;;;;;5024604;28;20026;-76
2021/04/16 08:58:50;;;;;;;8.23;3.95;;;;;;;;;;5017251;28;20064;-77
2021/04/16 09:01:18;;;;;;;13.95;4.90;;;;;;;;;;5031575;28;20032;-76
2021/04/16 09:03:47;;;;;;;12.70;4.03;;;;;;;;;;5020785;28;20108;-76
2021/04/16 09:06:39;;;;;;;6.40;3.75;;;;;;;;;;5016484;28;20029;-78
2021/04/16 09:09:06;;;;;;;4.50;2.78;;;;;;;;;;5016886;28;20037;-78
2021/04/16 09:11:42;;;;;;;6.93;2.97;;;;;;;;;;5013270;28;20068;-76
2021/04/16 09:14:37;;;;;;;5.15;2.95;;;;;;;;;;5018309;28;20414;-77
2021/04/16 09:17:06;;;;;;;5.45;2.88;;;;;;;;;;5019396;28;20107;-78
2021/04/16 09:19:32;;;;;;;7.65;3.30;;;;;;;;;;5011494;28;20029;-79
2021/04/16 09:22:05;;;;;;;7.45;3.22;;;;;;;;;;5022150;28;20033;-78
2021/04/16 09:24:49;;;;;;;3.88;1.83;;;;;;;;;;5021186;28;20168;-77
2021/04/16 09:27:21;;;;;;;7.03;2.13;;;;;;;;;;5020363;28;20025;-74
2021/04/16 09:29:47;;;;;;;3.88;1.70;;;;;;;;;;5018094;28;20044;-74
2021/04/16 09:32:32;;;;;;;5.28;2.20;;;;;;;;;;5022155;28;20236;-75
2021/04/16 09:34:59;;;;;;;4.78;2.10;;;;;;;;;;5023352;28;20018;-74
2021/04/16 09:37:32;;;;;;;6.30;2.00;;;;;;;;;;5017653;28;20572;-78
2021/04/16 09:40:19;;;;;;;3.92;1.92;;;;;;;;;;5017471;28;20088;-73
2021/04/16 09:42:46;;;;;;;5.72;1.90;;;;;;;;;;5008300;28;20041;-74
2021/04/16 09:45:14;;;;;;;3.15;1.48;;;;;;;;;;5010383;28;20037;-73
2021/04/16 09:47:47;;;;;;;4.78;1.83;;;;;;;;;;5024145;28;20044;-70
2021/04/16 09:50:24;;;;;;;3.08;1.40;;;;;;;;;;5009062;28;20034;-70
2021/04/16 09:52:53;;;;;;;3.60;1.55;;;;;;;;;;5019858;28;20044;-69
2021/04/16 09:55:37;;;;;;;6.65;1.33;;;;;;;;;;5026887;28;20029;-69
2021/04/16 09:58:03;;;;;;;4.45;1.65;;;;;;;;;;5028327;28;20124;-69
2021/04/16 10:00:35;;;;;;;4.53;1.95;;;;;;;;;;5020464;28;20056;-69
2021/04/16 10:03:40;;;;;;;2.65;1.17;;;;;;;;;;5023918;28;20040;-69
2021/04/16 10:06:24;;;;;;;2.67;1.25;;;;;;;;;;5004837;28;20034;-69
2021/04/16 10:09:12;;;;;;;2.65;1.40;;;;;;;;;;5005805;28;20044;-70
2021/04/16 10:11:46;;;;;;;5.03;1.30;;;;;;;;;;5016030;28;20042;-72
2021/04/16 10:14:14;;;;;;;3.95;1.40;;;;;;;;;;5018095;28;20036;-70
2021/04/16 10:16:40;;;;;;;6.13;1.75;;;;;;;;;;5020323;28;20021;-70
2021/04/16 10:19:14;;;;;;;3.83;1.42;;;;;;;;;;5023809;28;20036;-70
2021/04/16 10:21:41;;;;;;;3.67;1.00;;;;;;;;;;5023058;28;20100;-70
2021/04/16 10:37:00;;;;;;;3.85;2.20;;;;;;;;;;5022106;28;20118;-71
2021/04/16 10:59:30;;;;;;;4.15;1.60;;;;;;;;;;5026445;28;20072;-71
2021/04/16 11:04:34;;;;;;;6.40;1.95;;;;;;;;;;5030711;28;20044;-71
2021/04/16 12:39:21;;;;;;;2.20;0.60;;;;;;;;;;5037760;28;20077;-76
2021/04/16 12:41:53;;;;;;;3.50;0.40;;;;;;;;;;5036342;28;20021;-76
2021/04/16 12:44:40;;;;;;;2.03;0.82;;;;;;;;;;5022426;28;20025;-76
2021/04/16 12:47:13;;;;;;;3.95;1.02;;;;;;;;;;5028834;28;20056;-74
2021/04/16 12:49:40;;;;;;;1.77;0.60;;;;;;;;;;5033220;28;20022;-74
2021/04/16 12:52:07;;;;;;;3.50;0.82;;;;;;;;;;5033090;28;20072;-74
2021/04/16 12:54:40;;;;;;;2.33;0.65;;;;;;;;;;5026316;28;20028;-74
2021/04/16 12:57:07;;;;;;;4.05;0.90;;;;;;;;;;5032460;28;20033;-71
2021/04/16 12:59:35;;;;;;;2.65;1.00;;;;;;;;;;5023406;28;20088;-71
2021/04/16 13:02:01;;;;;;;3.35;1.10;;;;;;;;;;5021004;28;20038;-72
2021/04/16 13:04:27;;;;;;;2.42;1.00;;;;;;;;;;5023616;28;20099;-71
2021/04/16 13:06:55;;;;;;;4.63;1.20;;;;;;;;;;5026928;28;20022;-71
2021/04/16 13:09:21;;;;;;;4.60;1.80;;;;;;;;;;5027831;28;20116;-71
2021/04/16 13:11:50;;;;;;;3.42;1.20;;;;;;;;;;5035504;28;20093;-71
2021/04/16 13:14:17;;;;;;;4.03;1.58;;;;;;;;;;5027880;28;20037;-71
2021/04/16 13:16:43;;;;;;;4.13;1.48;;;;;;;;;;5022710;28;20034;-71
2021/04/16 13:19:10;;;;;;;3.08;1.45;;;;;;;;;;5030711;28;20080;-72
2021/04/16 13:21:38;;;;;;;4.45;1.67;;;;;;;;;;5022716;28;20398;-70
2021/04/16 13:24:04;;;;;;;9.60;1.63;;;;;;;;;;5023668;28;20030;-70
2021/04/16 13:26:30;;;;;;;3.70;1.42;;;;;;;;;;5025910;28;20025;-70
2021/04/16 13:28:56;;;;;;;4.88;1.88;;;;;;;;;;5028129;28;20038;-74
2021/04/16 13:31:23;;;;;;;4.35;1.30;;;;;;;;;;5017156;28;20198;-73
2021/04/16 13:33:50;;;;;;;6.78;1.75;;;;;;;;;;5012589;28;20022;-74
2021/04/16 13:36:17;;;;;;;5.03;1.80;;;;;;;;;;5010557;28;20022;-73
2021/04/16 13:38:43;;;;;;;3.90;1.90;;;;;;;;;;5022011;28;20583;-74
2021/04/16 13:41:09;;;;;;;3.60;1.98;;;;;;;;;;5020232;28;20522;-74
2021/04/16 13:43:35;;;;;;;4.50;1.70;;;;;;;;;;5016466;28;20029;-75
2021/04/16 13:46:03;;;;;;;2.28;1.38;;;;;;;;;;5022809;28;20040;-73
2021/04/16 13:48:29;;;;;;;4.15;1.55;;;;;;;;;;5018406;28;20022;-73
2021/04/16 13:50:55;;;;;;;5.72;1.50;;;;;;;;;;5021077;28;20033;-73
2021/04/16 13:53:21;;;;;;;4.53;2.08;;;;;;;;;;5020981;28;20147;-73
2021/04/16 13:55:47;;;;;;;3.28;1.65;;;;;;;;;;5023300;28;20345;-73
2021/04/16 13:58:13;;;;;;;2.00;1.50;;;;;;;;;;5016162;28;20072;-73
2021/04/16 14:00:39;;;;;;;3.15;1.42;;;;;;;;;;5014799;28;20014;-73
2021/04/16 14:03:24;;;;;;;6.07;2.10;;;;;;;;;;5020273;28;20052;-73
2021/04/16 14:05:51;;;;;;;4.35;1.60;;;;;;;;;;5027447;28;20077;-73
2021/04/16 14:08:30;;;;;;;3.40;1.40;;;;;;;;;;5013560;28;21075;-73
2021/04/16 14:10:56;;;;;;;5.25;1.83;;;;;;;;;;5016207;28;20518;-73
2021/04/16 14:13:22;;;;;;;4.60;1.30;;;;;;;;;;5025179;28;20053;-73
2021/04/16 14:15:48;;;;;;;4.18;1.70;;;;;;;;;;5012285;28;20391;-74
2021/04/16 14:18:23;;;;;;;4.95;1.63;;;;;;;;;;5012579;28;20453;-73
2021/04/16 14:20:49;;;;;;;5.15;1.30;;;;;;;;;;5017271;28;20054;-73
2021/04/16 14:23:15;;;;;;;4.90;1.50;;;;;;;;;;5016933;28;20072;-74
2021/04/16 14:25:42;;;;;;;4.35;1.42;;;;;;;;;;5026111;28;20021;-72
2021/04/16 14:28:12;;;;;;;2.53;1.30;;;;;;;;;;5017800;28;20025;-72
2021/04/16 14:30:38;;;;;;;;;;;;;;;;;;5016184;28;20491;-71
2021/04/16 14:33:06;;;;;;;5.38;2.08;;;;;;;;;;5019682;28;19952;-71
2021/04/16 14:35:33;;;;;;;5.13;1.58;;;;;;;;;;5021575;28;20033;-71
2021/04/16 14:37:59;;;;;;;4.45;2.03;;;;;;;;;;5015953;28;20109;-71
2021/04/16 14:40:26;;;;;;;6.65;1.70;;;;;;;;;;5014190;28;20072;-71
2021/04/16 14:42:52;;;;;;;3.55;1.40;;;;;;;;;;5015045;28;20478;-71
2021/04/16 14:45:20;;;;;;;3.20;1.23;;;;;;;;;;5021825;28;20498;-71
2021/04/16 14:47:46;;;;;;;5.63;1.65;;;;;;;;;;5021343;28;20033;-71
2021/04/16 14:50:13;;;;;;;4.28;1.45;;;;;;;;;;5017333;28;20029;-72
2021/04/16 14:52:40;;;;;;;4.28;1.42;;;;;;;;;;5016740;28;20475;-71
2021/04/16 14:55:07;;;;;;;4.63;1.88;;;;;;;;;;5018416;28;20033;-72
2021/04/16 14:57:40;;;;;;;3.42;1.63;;;;;;;;;;5014024;28;20033;-71
2021/04/16 15:00:17;;;;;;;3.22;1.10;;;;;;;;;;5018792;28;20088;-71
2021/04/16 15:02:43;;;;;;;3.35;1.35;;;;;;;;;;5021133;28;20030;-71
2021/04/16 15:05:10;;;;;;;2.80;1.30;;;;;;;;;;5019452;28;20026;-71
2021/04/16 15:07:40;;;;;;;3.78;1.30;;;;;;;;;;5018949;28;20100;-72
2021/04/16 15:10:07;;;;;;;4.10;1.40;;;;;;;;;;5019118;28;20017;-72
2021/04/16 15:12:34;;;;;;;3.55;2.17;;;;;;;;;;5012056;28;20028;-72
2021/04/16 15:15:00;;;;;;;5.93;1.38;;;;;;;;;;5018051;28;20030;-72
2021/04/16 15:17:27;;;;;;;3.45;1.02;;;;;;;;;;5023021;28;20037;-72
2021/04/16 15:19:55;;;;;;;2.95;1.10;;;;;;;;;;5015513;28;20091;-72
2021/04/16 15:22:25;;;;;;;3.25;1.50;;;;;;;;;;5015344;28;20560;-71
2021/04/16 15:24:52;;;;;;;2.65;1.38;;;;;;;;;;5015528;28;20026;-72
2021/04/16 15:27:24;;;;;;;5.97;1.58;;;;;;;;;;5022752;28;20028;-73
2021/04/16 15:29:54;;;;;;;5.65;1.45;;;;;;;;;;5023829;28;20029;-74
2021/04/16 15:32:27;;;;;;;2.92;1.20;;;;;;;;;;5017711;28;20021;-72
2021/04/16 15:48:20;;;;;;;3.22;1.15;;;;;;;;;;5033464;28;20041;-73
2021/04/16 15:50:49;;;;;;;3.45;1.40;;;;;;;;;;5032921;28;20080;-73
2021/04/16 15:53:16;;;;;;;5.78;1.77;;;;;;;;;;5039483;28;20532;-72
2021/04/16 15:55:42;;;;;;;4.80;1.45;;;;;;;;;;5043437;28;20028;-72
2021/04/16 15:58:11;;;;;;;3.60;1.50;;;;;;;;;;5034445;28;20029;-74
2021/04/16 16:00:42;;;;;;;3.40;1.63;;;;;;;;;;5034506;28;20087;-72
2021/04/16 16:03:08;;;;;;;3.80;1.42;;;;;;;;;;5036128;28;20468;-72
2021/04/16 16:05:35;;;;;;;2.67;1.15;;;;;;;;;;5034780;28;20536;-73
2021/04/16 16:08:01;;;;;;;5.70;1.88;;;;;;;;;;5034796;28;20084;-73
2021/04/16 16:10:28;;;;;;;2.40;1.30;;;;;;;;;;5035013;28;20064;-75
2021/04/16 16:13:04;;;;;;;4.80;1.50;;;;;;;;;;5036061;28;20108;-75
2021/04/16 16:15:35;;;;;;;3.65;1.35;;;;;;;;;;5022095;28;20030;-75
2021/04/16 16:18:02;;;;;;;5.90;1.60;;;;;;;;;;5024172;28;20033;-75
2021/04/16 16:20:30;;;;;;;4.38;1.10;;;;;;;;;;5039218;28;20043;-75
2021/04/16 16:22:58;;;;;;;3.78;1.55;;;;;;;;;;5028361;28;20112;-73
2021/04/16 16:25:24;;;;;;;3.38;1.75;;;;;;;;;;5028958;28;20561;-75
2021/04/16 16:27:51;;;;;;;3.65;1.67;;;;;;;;;;5021381;28;20022;-73
2021/04/16 16:30:23;;;;;;;2.70;1.80;;;;;;;;;;5020159;28;20033;-73
2021/04/16 16:32:49;;;;;;;7.32;1.50;;;;;;;;;;5015043;28;20030;-73
2021/04/16 16:35:17;;;;;;;5.60;1.40;;;;;;;;;;5029197;28;20033;-73
2021/04/16 16:37:43;;;;;;;6.28;1.33;;;;;;;;;;5017239;28;20121;-74
2021/04/16 16:40:10;;;;;;;2.97;1.30;;;;;;;;;;5019869;28;20108;-73
2021/04/16 16:42:39;;;;;;;4.72;1.52;;;;;;;;;;5020326;28;20101;-73
2021/04/16 16:45:10;;;;;;;5.88;1.33;;;;;;;;;;5015589;28;20039;-73
2021/04/16 16:47:36;;;;;;;3.75;1.95;;;;;;;;;;5024219;28;20067;-74
2021/04/16 16:50:03;;;;;;;2.28;1.02;;;;;;;;;;5020326;28;20068;-75
2021/04/16 16:52:29;;;;;;;5.07;1.15;;;;;;;;;;5016533;28;20052;-74
2021/04/16 16:54:55;;;;;;;4.47;1.20;;;;;;;;;;5015764;28;20067;-74
2021/04/16 16:57:22;;;;;;;2.72;1.42;;;;;;;;;;5016054;28;20029;-74
2021/04/16 16:59:49;;;;;;;2.60;1.25;;;;;;;;;;5011249;28;20030;-74
2021/04/16 17:02:15;;;;;;;2.10;1.10;;;;;;;;;;5015455;28;20040;-74
2021/04/16 17:04:43;;;;;;;3.05;1.50;;;;;;;;;;5012830;28;20184;-74
2021/04/16 17:07:09;;;;;;;5.20;1.65;;;;;;;;;;5018263;28;20029;-74
2021/04/16 17:09:35;;;;;;;5.55;1.70;;;;;;;;;;5016149;28;20105;-74
2021/04/16 17:12:01;;;;;;;7.72;1.48;;;;;;;;;;5021431;28;20463;-74